sensor_id;sensor_type;location;lat;lon;timestamp;temperature;humidity
6375;DHT22;35400;45.472;-122.822;2023-02-21T00:02:01;11.00;99.90
6375;DHT22;35400;45.472;-122.822;2023-02-21T00:04:46;11.00;99.90
6375;DHT22;35400;45.472;-122.822;2023-02-21T00:07:33;11.00;99.90
6375;DHT22;35400;45.472;-122.822;2023-02-21T00:10:18;11.00;99.90
6375;DHT22;35400;45.472;-122.822;2023-02-21T00:13:04;11.00;99.90
6375;DHT22;35400;45.472;-122.822;2023-02-21T00:15:48;11.00;99.90
6375;DHT22;35400;45.472;-122.822;2023-02-21T00:18:34;11.00;99.90
6375;DHT22;35400;45.472;-122.822;2023-02-21T00:21:20;11.00;99.90
6375;DHT22;35400;45.472;-122.822;2023-02-21T00:24:06;10.90;99.90
6375;DHT22;35400;45.472;-122.822;2023-02-21T00:26:51;10.90;99.90
6375;DHT22;35400;45.472;-122.822;2023-02-21T00:29:36;10.90;99.90
6375;DHT22;35400;45.472;-122.822;2023-02-21T00:32:21;10.90;99.90
6375;DHT22;35400;45.472;-122.822;2023-02-21T00:35:07;10.90;99.90
6375;DHT22;35400;45.472;-122.822;2023-02-21T00:37:53;10.90;99.90
6375;DHT22;35400;45.472;-122.822;2023-02-21T00:40:38;10.80;99.90
6375;DHT22;35400;45.472;-122.822;2023-02-21T00:43:31;10.80;99.90
6375;DHT22;35400;45.472;-122.822;2023-02-21T00:46:16;10.80;99.90
6375;DHT22;35400;45.472;-122.822;2023-02-21T00:49:02;10.80;99.90
6375;DHT22;35400;45.472;-122.822;2023-02-21T00:51:48;10.80;99.90
6375;DHT22;35400;45.472;-122.822;2023-02-21T00:54:34;10.70;99.90
6375;DHT22;35400;45.472;-122.822;2023-02-21T00:57:19;10.70;99.90
6375;DHT22;35400;45.472;-122.822;2023-02-21T01:00:06;10.70;99.90
6375;DHT22;35400;45.472;-122.822;2023-02-21T01:02:53;10.70;99.90
6375;DHT22;35400;45.472;-122.822;2023-02-21T01:05:38;10.60;99.90
6375;DHT22;35400;45.472;-122.822;2023-02-21T01:08:24;10.60;99.90
6375;DHT22;35400;45.472;-122.822;2023-02-21T01:11:17;10.60;99.90
6375;DHT22;35400;45.472;-122.822;2023-02-21T01:14:04;10.50;99.90
6375;DHT22;35400;45.472;-122.822;2023-02-21T01:16:49;10.50;99.90
6375;DHT22;35400;45.472;-122.822;2023-02-21T01:19:34;10.50;99.90
6375;DHT22;35400;45.472;-122.822;2023-02-21T01:22:20;10.40;99.90
6375;DHT22;35400;45.472;-122.822;2023-02-21T01:25:05;10.40;99.90
6375;DHT22;35400;45.472;-122.822;2023-02-21T01:27:54;10.40;99.90
6375;DHT22;35400;45.472;-122.822;2023-02-21T01:30:39;10.30;99.90
6375;DHT22;35400;45.472;-122.822;2023-02-21T01:33:24;10.30;99.90
6375;DHT22;35400;45.472;-122.822;2023-02-21T01:36:09;10.30;99.90
6375;DHT22;35400;45.472;-122.822;2023-02-21T01:38:55;10.20;99.90
6375;DHT22;35400;45.472;-122.822;2023-02-21T01:41:40;10.20;99.90
6375;DHT22;35400;45.472;-122.822;2023-02-21T01:47:16;10.20;99.90
6375;DHT22;35400;45.472;-122.822;2023-02-21T01:50:24;10.20;99.90
6375;DHT22;35400;45.472;-122.822;2023-02-21T01:53:28;10.10;99.90
6375;DHT22;35400;45.472;-122.822;2023-02-21T01:56:13;10.10;99.90
6375;DHT22;35400;45.472;-122.822;2023-02-21T01:59:01;10.10;99.90
6375;DHT22;35400;45.472;-122.822;2023-02-21T02:01:50;10.00;99.90
6375;DHT22;35400;45.472;-122.822;2023-02-21T02:04:37;10.00;99.90
6375;DHT22;35400;45.472;-122.822;2023-02-21T02:07:23;10.00;99.90
6375;DHT22;35400;45.472;-122.822;2023-02-21T02:10:11;9.90;99.90
6375;DHT22;35400;45.472;-122.822;2023-02-21T02:15:49;9.90;99.90
6375;DHT22;35400;45.472;-122.822;2023-02-21T02:35:37;9.80;99.90
6375;DHT22;35400;45.472;-122.822;2023-02-21T02:43:53;9.70;99.90
6375;DHT22;35400;45.472;-122.822;2023-02-21T02:46:23;9.70;99.90
6375;DHT22;35400;45.472;-122.822;2023-02-21T02:51:27;9.70;99.90
6375;DHT22;35400;45.472;-122.822;2023-02-21T02:53:58;9.60;99.90
6375;DHT22;35400;45.472;-122.822;2023-02-21T02:56:25;9.60;99.90
6375;DHT22;35400;45.472;-122.822;2023-02-21T02:59:06;9.60;99.90
6375;DHT22;35400;45.472;-122.822;2023-02-21T03:15:24;9.50;99.90
6375;DHT22;35400;45.472;-122.822;2023-02-21T03:18:13;9.50;99.90
6375;DHT22;35400;45.472;-122.822;2023-02-21T03:20:42;9.50;99.90
6375;DHT22;35400;45.472;-122.822;2023-02-21T03:23:12;9.50;99.90
6375;DHT22;35400;45.472;-122.822;2023-02-21T03:25:42;9.40;99.90
6375;DHT22;35400;45.472;-122.822;2023-02-21T03:28:11;9.40;99.90
6375;DHT22;35400;45.472;-122.822;2023-02-21T03:30:44;9.40;99.90
6375;DHT22;35400;45.472;-122.822;2023-02-21T03:33:13;9.40;99.90
6375;DHT22;35400;45.472;-122.822;2023-02-21T03:35:40;9.30;99.90
6375;DHT22;35400;45.472;-122.822;2023-02-21T03:38:09;9.30;99.90
6375;DHT22;35400;45.472;-122.822;2023-02-21T03:40:36;9.30;99.90
6375;DHT22;35400;45.472;-122.822;2023-02-21T03:43:05;9.30;99.90
6375;DHT22;35400;45.472;-122.822;2023-02-21T03:45:46;9.30;99.90
6375;DHT22;35400;45.472;-122.822;2023-02-21T03:48:16;9.30;99.90
6375;DHT22;35400;45.472;-122.822;2023-02-21T03:50:44;9.20;99.90
6375;DHT22;35400;45.472;-122.822;2023-02-21T03:53:11;9.20;99.90
6375;DHT22;35400;45.472;-122.822;2023-02-21T03:55:42;9.20;99.90
6375;DHT22;35400;45.472;-122.822;2023-02-21T03:58:16;9.20;99.90
6375;DHT22;35400;45.472;-122.822;2023-02-21T04:00:43;9.20;99.90
6375;DHT22;35400;45.472;-122.822;2023-02-21T04:03:10;9.20;99.90
6375;DHT22;35400;45.472;-122.822;2023-02-21T04:05:46;9.20;99.90
6375;DHT22;35400;45.472;-122.822;2023-02-21T04:08:14;9.20;99.90
6375;DHT22;35400;45.472;-122.822;2023-02-21T04:10:41;9.20;99.90
6375;DHT22;35400;45.472;-122.822;2023-02-21T04:13:08;9.20;99.90
6375;DHT22;35400;45.472;-122.822;2023-02-21T04:15:41;9.10;99.90
6375;DHT22;35400;45.472;-122.822;2023-02-21T04:18:08;9.10;99.90
6375;DHT22;35400;45.472;-122.822;2023-02-21T04:20:37;9.10;99.90
6375;DHT22;35400;45.472;-122.822;2023-02-21T04:23:05;9.10;99.90
6375;DHT22;35400;45.472;-122.822;2023-02-21T04:25:33;9.10;99.90
6375;DHT22;35400;45.472;-122.822;2023-02-21T04:28:05;9.10;99.90
6375;DHT22;35400;45.472;-122.822;2023-02-21T04:30:32;9.00;99.90
6375;DHT22;35400;45.472;-122.822;2023-02-21T04:32:59;9.00;99.90
6375;DHT22;35400;45.472;-122.822;2023-02-21T04:35:26;9.00;99.90
6375;DHT22;35400;45.472;-122.822;2023-02-21T04:37:54;9.00;99.90
6375;DHT22;35400;45.472;-122.822;2023-02-21T04:40:23;9.00;99.90
6375;DHT22;35400;45.472;-122.822;2023-02-21T04:42:50;9.00;99.90
6375;DHT22;35400;45.472;-122.822;2023-02-21T04:45:17;9.00;99.90
6375;DHT22;35400;45.472;-122.822;2023-02-21T04:47:44;9.00;99.90
6375;DHT22;35400;45.472;-122.822;2023-02-21T04:50:12;9.00;99.90
6375;DHT22;35400;45.472;-122.822;2023-02-21T04:52:39;9.10;99.90
6375;DHT22;35400;45.472;-122.822;2023-02-21T04:55:07;9.00;99.90
6375;DHT22;35400;45.472;-122.822;2023-02-21T04:57:34;9.10;99.90
6375;DHT22;35400;45.472;-122.822;2023-02-21T05:00:02;9.10;99.90
6375;DHT22;35400;45.472;-122.822;2023-02-21T05:02:33;9.10;99.90
6375;DHT22;35400;45.472;-122.822;2023-02-21T05:05:00;9.10;99.90
6375;DHT22;35400;45.472;-122.822;2023-02-21T05:07:29;9.10;99.90
6375;DHT22;35400;45.472;-122.822;2023-02-21T05:09:55;9.10;99.90
6375;DHT22;35400;45.472;-122.822;2023-02-21T05:12:22;9.10;99.90
6375;DHT22;35400;45.472;-122.822;2023-02-21T05:14:49;9.10;99.90
6375;DHT22;35400;45.472;-122.822;2023-02-21T05:17:16;9.10;99.90
6375;DHT22;35400;45.472;-122.822;2023-02-21T05:19:45;9.10;99.90
6375;DHT22;35400;45.472;-122.822;2023-02-21T05:22:12;9.10;99.90
6375;DHT22;35400;45.472;-122.822;2023-02-21T05:24:42;9.10;99.90
6375;DHT22;35400;45.472;-122.822;2023-02-21T05:27:09;9.10;99.90
6375;DHT22;35400;45.472;-122.822;2023-02-21T05:29:36;9.10;99.90
6375;DHT22;35400;45.472;-122.822;2023-02-21T05:32:03;9.10;99.90
6375;DHT22;35400;45.472;-122.822;2023-02-21T05:34:30;9.10;99.90
6375;DHT22;35400;45.472;-122.822;2023-02-21T05:36:57;9.20;99.90
6375;DHT22;35400;45.472;-122.822;2023-02-21T05:39:24;9.10;99.90
6375;DHT22;35400;45.472;-122.822;2023-02-21T05:41:51;9.20;99.90
6375;DHT22;35400;45.472;-122.822;2023-02-21T05:44:18;9.10;99.90
6375;DHT22;35400;45.472;-122.822;2023-02-21T05:46:45;9.10;99.90
6375;DHT22;35400;45.472;-122.822;2023-02-21T05:49:12;9.10;99.90
6375;DHT22;35400;45.472;-122.822;2023-02-21T05:51:41;9.20;99.90
6375;DHT22;35400;45.472;-122.822;2023-02-21T05:54:12;9.10;99.90
6375;DHT22;35400;45.472;-122.822;2023-02-21T05:56:40;9.10;99.90
6375;DHT22;35400;45.472;-122.822;2023-02-21T05:59:07;9.10;99.90
6375;DHT22;35400;45.472;-122.822;2023-02-21T06:01:34;9.10;99.90
6375;DHT22;35400;45.472;-122.822;2023-02-21T06:04:02;9.10;99.90
6375;DHT22;35400;45.472;-122.822;2023-02-21T06:06:29;9.10;99.90
6375;DHT22;35400;45.472;-122.822;2023-02-21T06:08:56;9.10;99.90
6375;DHT22;35400;45.472;-122.822;2023-02-21T06:11:26;9.10;99.90
6375;DHT22;35400;45.472;-122.822;2023-02-21T06:13:57;9.00;99.90
6375;DHT22;35400;45.472;-122.822;2023-02-21T06:16:24;9.10;99.90
6375;DHT22;35400;45.472;-122.822;2023-02-21T06:18:53;9.00;99.90
6375;DHT22;35400;45.472;-122.822;2023-02-21T06:21:20;9.00;99.90
6375;DHT22;35400;45.472;-122.822;2023-02-21T06:23:47;9.00;99.90
6375;DHT22;35400;45.472;-122.822;2023-02-21T06:26:16;9.00;99.90
6375;DHT22;35400;45.472;-122.822;2023-02-21T06:28:43;9.00;99.90
6375;DHT22;35400;45.472;-122.822;2023-02-21T06:31:10;9.00;99.90
6375;DHT22;35400;45.472;-122.822;2023-02-21T06:33:37;9.00;99.90
6375;DHT22;35400;45.472;-122.822;2023-02-21T06:36:09;8.90;99.90
6375;DHT22;35400;45.472;-122.822;2023-02-21T06:38:37;8.90;99.90
6375;DHT22;35400;45.472;-122.822;2023-02-21T06:41:06;8.90;99.90
6375;DHT22;35400;45.472;-122.822;2023-02-21T06:43:33;8.90;99.90
6375;DHT22;35400;45.472;-122.822;2023-02-21T06:46:02;8.90;99.90
6375;DHT22;35400;45.472;-122.822;2023-02-21T06:48:30;8.90;99.90
6375;DHT22;35400;45.472;-122.822;2023-02-21T06:50:57;8.90;99.90
6375;DHT22;35400;45.472;-122.822;2023-02-21T06:53:24;8.90;99.90
6375;DHT22;35400;45.472;-122.822;2023-02-21T06:55:51;9.00;99.90
6375;DHT22;35400;45.472;-122.822;2023-02-21T06:58:18;9.00;99.90
6375;DHT22;35400;45.472;-122.822;2023-02-21T07:00:45;9.00;99.90
6375;DHT22;35400;45.472;-122.822;2023-02-21T07:03:12;9.00;99.90
6375;DHT22;35400;45.472;-122.822;2023-02-21T07:05:38;9.10;99.90
6375;DHT22;35400;45.472;-122.822;2023-02-21T07:08:06;9.10;99.90
6375;DHT22;35400;45.472;-122.822;2023-02-21T07:10:33;9.20;99.90
6375;DHT22;35400;45.472;-122.822;2023-02-21T07:13:00;9.20;99.90
6375;DHT22;35400;45.472;-122.822;2023-02-21T07:15:27;9.20;99.90
6375;DHT22;35400;45.472;-122.822;2023-02-21T07:17:55;9.20;99.90
6375;DHT22;35400;45.472;-122.822;2023-02-21T07:20:22;9.30;99.90
6375;DHT22;35400;45.472;-122.822;2023-02-21T07:22:49;9.30;99.90
6375;DHT22;35400;45.472;-122.822;2023-02-21T07:25:19;9.30;99.90
6375;DHT22;35400;45.472;-122.822;2023-02-21T07:27:47;9.40;99.90
6375;DHT22;35400;45.472;-122.822;2023-02-21T07:30:15;9.40;99.90
6375;DHT22;35400;45.472;-122.822;2023-02-21T07:32:42;9.40;99.90
6375;DHT22;35400;45.472;-122.822;2023-02-21T07:35:09;9.40;99.90
6375;DHT22;35400;45.472;-122.822;2023-02-21T07:37:37;9.40;99.90
6375;DHT22;35400;45.472;-122.822;2023-02-21T07:40:04;9.50;99.90
6375;DHT22;35400;45.472;-122.822;2023-02-21T07:42:34;9.50;99.90
6375;DHT22;35400;45.472;-122.822;2023-02-21T07:45:01;9.50;99.90
6375;DHT22;35400;45.472;-122.822;2023-02-21T07:47:28;9.50;99.90
6375;DHT22;35400;45.472;-122.822;2023-02-21T07:49:55;9.50;99.90
6375;DHT22;35400;45.472;-122.822;2023-02-21T07:52:22;9.50;99.90
6375;DHT22;35400;45.472;-122.822;2023-02-21T07:54:49;9.50;99.90
6375;DHT22;35400;45.472;-122.822;2023-02-21T07:57:17;9.50;99.90
6375;DHT22;35400;45.472;-122.822;2023-02-21T07:59:44;9.60;99.90
6375;DHT22;35400;45.472;-122.822;2023-02-21T08:02:11;9.60;99.90
6375;DHT22;35400;45.472;-122.822;2023-02-21T08:04:38;9.50;99.90
6375;DHT22;35400;45.472;-122.822;2023-02-21T08:07:06;9.60;99.90
6375;DHT22;35400;45.472;-122.822;2023-02-21T08:09:34;9.60;99.90
6375;DHT22;35400;45.472;-122.822;2023-02-21T08:12:01;9.60;99.90
6375;DHT22;35400;45.472;-122.822;2023-02-21T08:14:28;9.60;99.90
6375;DHT22;35400;45.472;-122.822;2023-02-21T08:16:55;9.60;99.90
6375;DHT22;35400;45.472;-122.822;2023-02-21T08:19:22;9.60;99.90
6375;DHT22;35400;45.472;-122.822;2023-02-21T08:21:49;9.60;99.90
6375;DHT22;35400;45.472;-122.822;2023-02-21T08:24:17;9.60;99.90
6375;DHT22;35400;45.472;-122.822;2023-02-21T08:26:45;9.60;99.90
6375;DHT22;35400;45.472;-122.822;2023-02-21T08:29:13;9.60;99.90
6375;DHT22;35400;45.472;-122.822;2023-02-21T08:31:41;9.60;99.90
6375;DHT22;35400;45.472;-122.822;2023-02-21T08:34:10;9.60;99.90
6375;DHT22;35400;45.472;-122.822;2023-02-21T08:36:40;9.60;99.90
6375;DHT22;35400;45.472;-122.822;2023-02-21T08:39:08;9.60;99.90
6375;DHT22;35400;45.472;-122.822;2023-02-21T08:41:37;9.50;99.90
6375;DHT22;35400;45.472;-122.822;2023-02-21T08:44:05;9.50;99.90
6375;DHT22;35400;45.472;-122.822;2023-02-21T08:46:33;9.40;99.90
6375;DHT22;35400;45.472;-122.822;2023-02-21T08:49:02;9.40;99.90
6375;DHT22;35400;45.472;-122.822;2023-02-21T08:51:30;9.30;99.90
6375;DHT22;35400;45.472;-122.822;2023-02-21T08:53:58;9.20;99.90
6375;DHT22;35400;45.472;-122.822;2023-02-21T08:56:27;9.20;99.90
6375;DHT22;35400;45.472;-122.822;2023-02-21T08:58:54;9.10;99.90
6375;DHT22;35400;45.472;-122.822;2023-02-21T09:01:22;9.00;99.90
6375;DHT22;35400;45.472;-122.822;2023-02-21T09:03:49;9.00;99.90
6375;DHT22;35400;45.472;-122.822;2023-02-21T09:06:18;8.90;99.90
6375;DHT22;35400;45.472;-122.822;2023-02-21T09:08:45;8.80;99.90
6375;DHT22;35400;45.472;-122.822;2023-02-21T09:11:11;8.70;99.90
6375;DHT22;35400;45.472;-122.822;2023-02-21T09:13:38;8.70;99.90
6375;DHT22;35400;45.472;-122.822;2023-02-21T09:16:06;8.60;99.90
6375;DHT22;35400;45.472;-122.822;2023-02-21T09:18:33;8.60;99.90
6375;DHT22;35400;45.472;-122.822;2023-02-21T09:21:00;8.50;99.90
6375;DHT22;35400;45.472;-122.822;2023-02-21T09:23:29;8.50;99.90
6375;DHT22;35400;45.472;-122.822;2023-02-21T09:25:56;8.40;99.90
6375;DHT22;35400;45.472;-122.822;2023-02-21T09:28:23;8.30;99.90
6375;DHT22;35400;45.472;-122.822;2023-02-21T09:30:50;8.30;99.90
6375;DHT22;35400;45.472;-122.822;2023-02-21T09:33:17;8.20;99.90
6375;DHT22;35400;45.472;-122.822;2023-02-21T09:35:44;8.10;99.90
6375;DHT22;35400;45.472;-122.822;2023-02-21T09:38:11;8.10;99.90
6375;DHT22;35400;45.472;-122.822;2023-02-21T09:40:39;8.00;99.90
6375;DHT22;35400;45.472;-122.822;2023-02-21T09:43:19;7.90;99.90
6375;DHT22;35400;45.472;-122.822;2023-02-21T09:45:48;7.90;99.90
6375;DHT22;35400;45.472;-122.822;2023-02-21T09:48:19;7.80;99.90
6375;DHT22;35400;45.472;-122.822;2023-02-21T09:50:50;7.80;99.90
6375;DHT22;35400;45.472;-122.822;2023-02-21T09:53:25;7.70;99.90
6375;DHT22;35400;45.472;-122.822;2023-02-21T09:55:56;7.70;99.90
6375;DHT22;35400;45.472;-122.822;2023-02-21T09:58:25;7.60;99.90
6375;DHT22;35400;45.472;-122.822;2023-02-21T10:00:51;7.60;99.90
6375;DHT22;35400;45.472;-122.822;2023-02-21T10:03:30;7.50;99.90
6375;DHT22;35400;45.472;-122.822;2023-02-21T10:09:24;7.40;99.90
6375;DHT22;35400;45.472;-122.822;2023-02-21T10:15:18;7.20;99.90
6375;DHT22;35400;45.472;-122.822;2023-02-21T10:20:57;7.10;99.90
6375;DHT22;35400;45.472;-122.822;2023-02-21T10:23:31;7.10;99.90
6375;DHT22;35400;45.472;-122.822;2023-02-21T10:26:10;7.00;99.90
6375;DHT22;35400;45.472;-122.822;2023-02-21T10:28:38;6.90;99.90
6375;DHT22;35400;45.472;-122.822;2023-02-21T10:31:33;6.90;99.90
6375;DHT22;35400;45.472;-122.822;2023-02-21T10:33:58;6.80;99.90
6375;DHT22;35400;45.472;-122.822;2023-02-21T10:36:26;6.80;99.90
6375;DHT22;35400;45.472;-122.822;2023-02-21T10:39:08;6.80;99.90
6375;DHT22;35400;45.472;-122.822;2023-02-21T10:41:38;6.70;99.90
6375;DHT22;35400;45.472;-122.822;2023-02-21T10:44:29;6.70;99.90
6375;DHT22;35400;45.472;-122.822;2023-02-21T10:47:18;6.60;99.90
6375;DHT22;35400;45.472;-122.822;2023-02-21T10:49:54;6.60;99.90
6375;DHT22;35400;45.472;-122.822;2023-02-21T10:52:25;6.50;99.90
6375;DHT22;35400;45.472;-122.822;2023-02-21T10:55:04;6.50;99.90
6375;DHT22;35400;45.472;-122.822;2023-02-21T10:57:39;6.40;99.90
6375;DHT22;35400;45.472;-122.822;2023-02-21T11:00:08;6.40;99.90
6375;DHT22;35400;45.472;-122.822;2023-02-21T11:02:40;6.30;99.90
6375;DHT22;35400;45.472;-122.822;2023-02-21T11:05:13;6.30;99.90
6375;DHT22;35400;45.472;-122.822;2023-02-21T11:10:34;6.20;99.90
6375;DHT22;35400;45.472;-122.822;2023-02-21T11:15:39;6.10;99.90
6375;DHT22;35400;45.472;-122.822;2023-02-21T11:18:26;6.10;99.90
6375;DHT22;35400;45.472;-122.822;2023-02-21T11:20:53;6.10;99.90
6375;DHT22;35400;45.472;-122.822;2023-02-21T11:23:22;6.10;99.90
6375;DHT22;35400;45.472;-122.822;2023-02-21T11:25:50;6.00;99.90
6375;DHT22;35400;45.472;-122.822;2023-02-21T11:28:20;6.00;99.90
6375;DHT22;35400;45.472;-122.822;2023-02-21T11:31:02;6.00;99.90
6375;DHT22;35400;45.472;-122.822;2023-02-21T11:33:31;5.90;99.90
6375;DHT22;35400;45.472;-122.822;2023-02-21T11:36:18;5.90;99.90
6375;DHT22;35400;45.472;-122.822;2023-02-21T11:39:06;5.90;99.90
6375;DHT22;35400;45.472;-122.822;2023-02-21T11:41:57;5.80;99.90
6375;DHT22;35400;45.472;-122.822;2023-02-21T11:44:39;5.80;99.90
6375;DHT22;35400;45.472;-122.822;2023-02-21T11:47:21;5.80;99.90
6375;DHT22;35400;45.472;-122.822;2023-02-21T11:50:06;5.80;99.90
6375;DHT22;35400;45.472;-122.822;2023-02-21T11:53:03;5.70;99.90
6375;DHT22;35400;45.472;-122.822;2023-02-21T11:55:27;5.70;99.90
6375;DHT22;35400;45.472;-122.822;2023-02-21T12:01:16;5.60;99.90
6375;DHT22;35400;45.472;-122.822;2023-02-21T12:07:15;5.50;99.90
6375;DHT22;35400;45.472;-122.822;2023-02-21T12:09:58;5.50;99.90
6375;DHT22;35400;45.472;-122.822;2023-02-21T12:15:33;5.50;99.90
6375;DHT22;35400;45.472;-122.822;2023-02-21T12:21:19;5.40;99.90
6375;DHT22;35400;45.472;-122.822;2023-02-21T12:24:04;5.30;99.90
6375;DHT22;35400;45.472;-122.822;2023-02-21T12:26:39;5.30;99.90
6375;DHT22;35400;45.472;-122.822;2023-02-21T12:34:25;5.30;99.90
6375;DHT22;35400;45.472;-122.822;2023-02-21T12:43:08;5.20;99.90
6375;DHT22;35400;45.472;-122.822;2023-02-21T12:50:54;5.20;99.90
6375;DHT22;35400;45.472;-122.822;2023-02-21T12:56:31;5.30;99.90
6375;DHT22;35400;45.472;-122.822;2023-02-21T13:02:11;5.30;99.90
6375;DHT22;35400;45.472;-122.822;2023-02-21T13:04:56;5.30;99.90
6375;DHT22;35400;45.472;-122.822;2023-02-21T13:10:29;5.30;99.90
6375;DHT22;35400;45.472;-122.822;2023-02-21T13:13:31;5.20;99.90
6375;DHT22;35400;45.472;-122.822;2023-02-21T13:15:51;5.30;99.90
6375;DHT22;35400;45.472;-122.822;2023-02-21T13:18:30;5.30;99.90
6375;DHT22;35400;45.472;-122.822;2023-02-21T13:21:00;5.30;99.90
6375;DHT22;35400;45.472;-122.822;2023-02-21T13:26:39;5.30;99.90
6375;DHT22;35400;45.472;-122.822;2023-02-21T13:29:24;5.30;99.90
6375;DHT22;35400;45.472;-122.822;2023-02-21T13:32:11;5.30;99.90
6375;DHT22;35400;45.472;-122.822;2023-02-21T13:34:42;5.30;99.90
6375;DHT22;35400;45.472;-122.822;2023-02-21T13:37:21;5.30;99.90
6375;DHT22;35400;45.472;-122.822;2023-02-21T13:39:58;5.30;99.90
6375;DHT22;35400;45.472;-122.822;2023-02-21T13:42:37;5.30;99.90
6375;DHT22;35400;45.472;-122.822;2023-02-21T13:45:23;5.30;99.90
6375;DHT22;35400;45.472;-122.822;2023-02-21T13:53:23;5.40;99.90
6375;DHT22;35400;45.472;-122.822;2023-02-21T13:58:38;5.30;99.90
6375;DHT22;35400;45.472;-122.822;2023-02-21T14:03:41;5.30;99.90
6375;DHT22;35400;45.472;-122.822;2023-02-21T14:08:47;5.30;99.90
6375;DHT22;35400;45.472;-122.822;2023-02-21T14:11:22;5.30;99.90
6375;DHT22;35400;45.472;-122.822;2023-02-21T14:14:17;5.30;99.90
6375;DHT22;35400;45.472;-122.822;2023-02-21T14:16:57;5.30;99.90
6375;DHT22;35400;45.472;-122.822;2023-02-21T14:19:46;5.30;99.90
6375;DHT22;35400;45.472;-122.822;2023-02-21T14:22:23;5.30;99.90
6375;DHT22;35400;45.472;-122.822;2023-02-21T14:25:02;5.30;99.90
6375;DHT22;35400;45.472;-122.822;2023-02-21T14:27:31;5.20;99.90
6375;DHT22;35400;45.472;-122.822;2023-02-21T14:32:42;5.30;99.90
6375;DHT22;35400;45.472;-122.822;2023-02-21T14:35:45;5.30;99.90
6375;DHT22;35400;45.472;-122.822;2023-02-21T14:38:20;5.30;99.90
6375;DHT22;35400;45.472;-122.822;2023-02-21T15:05:29;4.90;99.90
6375;DHT22;35400;45.472;-122.822;2023-02-21T15:08:20;4.90;99.90
6375;DHT22;35400;45.472;-122.822;2023-02-21T15:10:51;4.90;99.90
6375;DHT22;35400;45.472;-122.822;2023-02-21T15:13:30;4.80;99.90
6375;DHT22;35400;45.472;-122.822;2023-02-21T15:21:07;4.80;99.90
6375;DHT22;35400;45.472;-122.822;2023-02-21T15:23:45;4.70;99.90
6375;DHT22;35400;45.472;-122.822;2023-02-21T15:26:23;4.70;99.90
6375;DHT22;35400;45.472;-122.822;2023-02-21T15:29:22;4.70;99.90
6375;DHT22;35400;45.472;-122.822;2023-02-21T15:31:52;4.70;99.90
6375;DHT22;35400;45.472;-122.822;2023-02-21T15:34:30;4.60;99.90
6375;DHT22;35400;45.472;-122.822;2023-02-21T15:37:23;4.60;99.90
6375;DHT22;35400;45.472;-122.822;2023-02-21T15:39:53;4.60;99.90
6375;DHT22;35400;45.472;-122.822;2023-02-21T15:42:22;4.60;99.90
6375;DHT22;35400;45.472;-122.822;2023-02-21T15:44:59;4.60;99.90
6375;DHT22;35400;45.472;-122.822;2023-02-21T15:47:28;4.50;99.90
6375;DHT22;35400;45.472;-122.822;2023-02-21T15:50:10;4.50;99.90
6375;DHT22;35400;45.472;-122.822;2023-02-21T15:52:44;4.50;99.90
6375;DHT22;35400;45.472;-122.822;2023-02-21T16:00:42;4.60;99.90
6375;DHT22;35400;45.472;-122.822;2023-02-21T16:03:40;4.60;99.90
6375;DHT22;35400;45.472;-122.822;2023-02-21T16:08:39;4.60;99.90
6375;DHT22;35400;45.472;-122.822;2023-02-21T16:11:16;4.60;99.90
6375;DHT22;35400;45.472;-122.822;2023-02-21T16:13:43;4.70;99.90
6375;DHT22;35400;45.472;-122.822;2023-02-21T16:16:10;4.70;99.90
6375;DHT22;35400;45.472;-122.822;2023-02-21T16:18:37;4.70;99.90
6375;DHT22;35400;45.472;-122.822;2023-02-21T16:21:06;4.80;99.90
6375;DHT22;35400;45.472;-122.822;2023-02-21T16:23:41;4.80;99.90
6375;DHT22;35400;45.472;-122.822;2023-02-21T16:28:43;4.90;99.90
6375;DHT22;35400;45.472;-122.822;2023-02-21T16:31:16;4.90;99.90
6375;DHT22;35400;45.472;-122.822;2023-02-21T16:33:49;4.90;99.90
6375;DHT22;35400;45.472;-122.822;2023-02-21T16:36:27;5.00;99.90
6375;DHT22;35400;45.472;-122.822;2023-02-21T16:38:55;5.00;99.90
6375;DHT22;35400;45.472;-122.822;2023-02-21T16:41:23;5.10;99.90
6375;DHT22;35400;45.472;-122.822;2023-02-21T16:43:50;5.10;99.90
6375;DHT22;35400;45.472;-122.822;2023-02-21T16:46:25;5.20;99.90
6375;DHT22;35400;45.472;-122.822;2023-02-21T16:48:53;5.20;99.90
6375;DHT22;35400;45.472;-122.822;2023-02-21T16:51:20;5.30;99.90
6375;DHT22;35400;45.472;-122.822;2023-02-21T16:53:48;5.30;99.90
6375;DHT22;35400;45.472;-122.822;2023-02-21T16:56:15;5.40;99.90
6375;DHT22;35400;45.472;-122.822;2023-02-21T16:58:47;5.40;99.90
6375;DHT22;35400;45.472;-122.822;2023-02-21T17:01:27;5.40;99.90
6375;DHT22;35400;45.472;-122.822;2023-02-21T17:03:55;5.50;99.90
6375;DHT22;35400;45.472;-122.822;2023-02-21T17:06:24;5.50;99.90
6375;DHT22;35400;45.472;-122.822;2023-02-21T17:08:52;5.50;99.90
6375;DHT22;35400;45.472;-122.822;2023-02-21T17:11:19;5.60;99.90
6375;DHT22;35400;45.472;-122.822;2023-02-21T17:13:45;5.60;99.90
6375;DHT22;35400;45.472;-122.822;2023-02-21T17:16:12;5.60;99.90
6375;DHT22;35400;45.472;-122.822;2023-02-21T17:18:39;5.60;99.90
6375;DHT22;35400;45.472;-122.822;2023-02-21T17:21:06;5.60;99.90
6375;DHT22;35400;45.472;-122.822;2023-02-21T17:23:33;5.50;99.90
6375;DHT22;35400;45.472;-122.822;2023-02-21T17:26:00;5.50;99.90
6375;DHT22;35400;45.472;-122.822;2023-02-21T17:28:27;5.50;99.90
6375;DHT22;35400;45.472;-122.822;2023-02-21T17:30:54;5.50;99.90
6375;DHT22;35400;45.472;-122.822;2023-02-21T17:33:21;5.60;99.90
6375;DHT22;35400;45.472;-122.822;2023-02-21T17:35:48;5.60;99.90
6375;DHT22;35400;45.472;-122.822;2023-02-21T17:38:15;5.70;99.90
6375;DHT22;35400;45.472;-122.822;2023-02-21T17:40:42;5.70;99.90
6375;DHT22;35400;45.472;-122.822;2023-02-21T17:43:10;5.80;99.90
6375;DHT22;35400;45.472;-122.822;2023-02-21T17:45:37;5.80;99.90
6375;DHT22;35400;45.472;-122.822;2023-02-21T17:48:04;5.80;99.90
6375;DHT22;35400;45.472;-122.822;2023-02-21T17:50:31;5.80;99.90
6375;DHT22;35400;45.472;-122.822;2023-02-21T17:52:58;5.80;99.90
6375;DHT22;35400;45.472;-122.822;2023-02-21T17:55:25;5.90;99.90
6375;DHT22;35400;45.472;-122.822;2023-02-21T17:57:54;5.90;99.90
6375;DHT22;35400;45.472;-122.822;2023-02-21T18:00:23;6.00;99.90
6375;DHT22;35400;45.472;-122.822;2023-02-21T18:02:52;6.10;99.90
6375;DHT22;35400;45.472;-122.822;2023-02-21T18:05:20;6.20;99.90
6375;DHT22;35400;45.472;-122.822;2023-02-21T18:07:48;6.30;99.90
6375;DHT22;35400;45.472;-122.822;2023-02-21T18:10:18;6.50;99.90
6375;DHT22;35400;45.472;-122.822;2023-02-21T18:12:45;6.70;99.90
6375;DHT22;35400;45.472;-122.822;2023-02-21T18:15:13;6.80;99.90
6375;DHT22;35400;45.472;-122.822;2023-02-21T18:17:40;6.80;99.90
6375;DHT22;35400;45.472;-122.822;2023-02-21T18:20:09;6.80;99.90
6375;DHT22;35400;45.472;-122.822;2023-02-21T18:22:36;6.90;99.90
6375;DHT22;35400;45.472;-122.822;2023-02-21T18:25:04;6.80;99.90
6375;DHT22;35400;45.472;-122.822;2023-02-21T18:27:31;6.80;99.90
6375;DHT22;35400;45.472;-122.822;2023-02-21T18:29:58;6.80;99.90